Time;durP1;ratioP1;P1;durP2;ratioP2;P2;SDS_P1;SDS_P2;PMS_P1;PMS_P2;Temp;Humidity;BMP_temperature;BMP_pressure;BME280_temperature;BME280_humidity;BME280_pressure;Samples;Min_cycle;Max_cycle;Signal;HPM_P1;HPM_P2
2023/01/13 00:00:42;;;;;;;0.70;0.50;;;;;;;2.56;76.37;94669.94;4984285;28;20058;-76
2023/01/13 00:03:07;;;;;;;2.17;0.75;;;;;;;2.93;74.50;94673.34;4984360;28;20084;-76
2023/01/13 00:05:33;;;;;;;0.88;0.38;;;;;;;2.35;77.39;94668.44;4983954;28;20047;-76
2023/01/13 00:07:58;;;;;;;0.50;0.50;;;;;;;2.19;77.33;94669.94;4957822;28;20073;-76
2023/01/13 00:10:24;;;;;;;2.75;0.40;;;;;;;1.93;78.83;94681.13;4968055;28;20087;-75
2023/01/13 00:12:50;;;;;;;6.90;0.60;;;;;;;2.28;77.80;94660.31;4968036;28;20515;-76
2023/01/13 00:15:15;;;;;;;0.68;0.63;;;;;;;2.54;76.79;94654.31;4951758;28;20084;-75
2023/01/13 00:17:41;;;;;;;12.77;7.00;;;;;;;2.69;75.55;94654.59;4952915;28;20052;-76
2023/01/13 00:20:07;;;;;;;0.68;0.50;;;;;;;2.54;75.67;94649.06;4972152;28;20118;-76
2023/01/13 00:22:33;;;;;;;0.75;0.70;;;;;;;1.99;76.95;94641.19;4976080;28;20657;-76
2023/01/13 00:25:00;;;;;;;0.40;0.40;;;;;;;2.57;75.18;94640.03;4956418;28;20139;-76
2023/01/13 00:27:26;;;;;;;0.55;0.40;;;;;;;2.73;75.03;94649.88;4984235;28;20096;-76
2023/01/13 00:29:51;;;;;;;0.40;0.40;;;;;;;3.09;74.21;94623.47;4976573;28;20290;-76
2023/01/13 00:32:17;;;;;;;0.63;0.30;;;;;;;2.71;74.95;94638.66;4984198;28;20711;-76
2023/01/13 00:34:42;;;;;;;1.13;0.30;;;;;;;2.57;76.22;94635.63;4983710;28;20080;-76
2023/01/13 00:37:11;;;;;;;0.75;0.40;;;;;;;3.07;73.08;94637.75;4968210;28;20062;-76
2023/01/13 00:39:37;;;;;;;0.50;0.50;;;;;;;2.65;74.61;94619.91;4952109;28;20097;-76
2023/01/13 00:44:46;;;;;;;1.10;0.50;;;;;;;3.04;73.58;94620.50;4983890;28;20371;-76
2023/01/13 00:47:12;;;;;;;0.73;0.38;;;;;;;2.74;74.05;94635.72;4983103;28;20327;-76
2023/01/13 00:49:37;;;;;;;0.30;0.30;;;;;;;2.97;74.39;94669.44;4982995;28;20069;-76
2023/01/13 00:52:02;;;;;;;1.17;0.50;;;;;;;2.67;75.19;94626.81;4983533;28;20052;-76
2023/01/13 00:54:28;;;;;;;0.20;0.20;;;;;;;2.99;74.75;94620.94;4959227;28;20075;-76
2023/01/13 00:56:53;;;;;;;0.75;0.60;;;;;;;2.75;75.66;94625.06;4983124;28;20111;-76
2023/01/13 00:59:19;;;;;;;1.00;0.43;;;;;;;2.60;75.00;94616.91;4979284;28;20126;-76
2023/01/13 01:01:44;;;;;;;0.98;0.50;;;;;;;2.81;74.92;94610.50;4980440;28;20537;-76
2023/01/13 01:04:10;;;;;;;0.82;0.40;;;;;;;2.87;75.42;94604.63;4984064;28;20065;-76
2023/01/13 01:06:35;;;;;;;0.38;0.38;;;;;;;2.85;74.68;94611.81;4971964;28;20070;-76
2023/01/13 01:09:00;;;;;;;0.60;0.55;;;;;;;3.14;74.16;94599.34;4953868;28;20077;-76
2023/01/13 01:11:28;;;;;;;0.40;0.40;;;;;;;3.39;72.75;94613.44;4984954;28;20556;-76
2023/01/13 01:13:54;;;;;;;0.65;0.57;;;;;;;3.35;72.77;94620.00;4966223;28;20238;-76
2023/01/13 01:16:21;;;;;;;0.52;0.22;;;;;;;3.36;72.18;94613.75;4975815;28;20367;-76
2023/01/13 01:18:47;;;;;;;0.50;0.50;;;;;;;3.22;72.34;94611.69;4991987;28;20080;-76
2023/01/13 01:21:12;;;;;;;2.28;0.52;;;;;;;3.18;72.99;94616.47;4956915;28;20183;-76
2023/01/13 01:23:38;;;;;;;0.90;0.50;;;;;;;2.93;72.96;94636.53;4961247;28;20101;-76
2023/01/13 01:26:14;;;;;;;0.47;0.20;;;;;;;2.84;72.52;94631.22;4972092;28;20085;-76
2023/01/13 01:28:39;;;;;;;0.50;0.50;;;;;;;3.04;72.76;94621.31;4966875;28;20120;-76
2023/01/13 01:31:09;;;;;;;0.20;0.20;;;;;;;2.60;73.82;94611.66;4982725;28;20088;-76
2023/01/13 01:33:35;;;;;;;1.00;0.43;;;;;;;3.07;73.63;94614.09;4965379;28;20414;-76
2023/01/13 01:36:01;;;;;;;0.30;0.30;;;;;;;3.28;72.42;94611.09;4968484;28;20062;-76
2023/01/13 01:38:26;;;;;;;0.20;0.20;;;;;;;3.46;71.57;94610.19;4934798;28;20522;-76
2023/01/13 01:40:52;;;;;;;0.32;0.32;;;;;;;3.12;73.29;94598.66;4982888;28;20055;-75
2023/01/13 01:46:03;;;;;;;0.75;0.50;;;;;;;3.64;71.55;94605.66;4968270;28;20567;-76
2023/01/13 01:48:32;;;;;;;0.90;0.60;;;;;;;3.49;70.30;94599.34;4960378;28;20054;-76
2023/01/13 01:50:57;;;;;;;0.40;0.40;;;;;;;4.08;70.13;94588.00;4974225;28;20565;-76
2023/01/13 01:53:23;;;;;;;1.35;0.60;;;;;;;3.45;70.55;94583.06;4973188;28;20047;-76
2023/01/13 01:55:48;;;;;;;0.47;0.32;;;;;;;4.04;69.10;94584.03;4966289;28;20088;-76
2023/01/13 01:58:20;;;;;;;0.30;0.30;;;;;;;4.03;67.82;94582.38;4962055;28;20534;-76
2023/01/13 02:00:45;;;;;;;0.75;0.50;;;;;;;3.28;72.60;94596.13;4963867;28;20467;-76
2023/01/13 02:03:11;;;;;;;0.20;0.20;;;;;;;3.71;70.96;94576.06;4972367;28;20101;-76
2023/01/13 02:05:37;;;;;;;0.38;0.38;;;;;;;3.04;70.93;94583.69;4960172;28;20056;-75
2023/01/13 02:08:03;;;;;;;0.52;0.30;;;;;;;3.58;70.89;94581.78;4982600;28;20078;-75
2023/01/13 02:10:28;;;;;;;0.20;0.20;;;;;;;3.35;71.69;94580.53;4950316;28;20433;-75
2023/01/13 02:12:55;;;;;;;0.93;0.38;;;;;;;3.22;72.49;94559.91;4950721;28;20278;-75
2023/01/13 02:16:07;;;;;;;0.55;0.32;;;;;;;2.64;75.11;94575.38;4950043;28;20092;-75
2023/01/13 02:18:57;;;;;;;2.05;0.52;;;;;;;3.35;71.51;94574.44;4965863;28;20650;-75
2023/01/13 02:22:01;;;;;;;0.40;0.40;;;;;;;3.42;72.35;94560.50;4981554;28;20079;-75
2023/01/13 02:24:53;;;;;;;0.88;0.22;;;;;;;3.60;70.85;94556.94;4965678;28;20070;-75
2023/01/13 02:27:51;;;;;;;0.80;0.38;;;;;;;2.90;72.73;94567.47;4967936;28;20626;-75
2023/01/13 02:33:52;;;;;;;1.17;0.40;;;;;;;3.25;73.11;94553.50;4982073;28;20413;-75
2023/01/13 02:36:39;;;;;;;1.70;0.17;;;;;;;3.70;71.30;94559.44;4966722;28;20218;-75
2023/01/13 02:39:28;;;;;;;0.30;0.22;;;;;;;2.97;72.64;94553.72;4980645;28;20110;-75
2023/01/13 02:44:54;;;;;;;0.45;0.20;;;;;;;3.91;70.04;94548.47;4967158;28;20130;-75
2023/01/13 02:47:21;;;;;;;2.50;0.30;;;;;;;3.53;71.53;94555.94;4953744;28;20089;-76
2023/01/13 02:49:49;;;;;;;4.28;0.47;;;;;;;3.24;72.11;94567.66;4974625;28;20499;-75
2023/01/13 02:52:27;;;;;;;0.30;0.30;;;;;;;2.55;76.32;94581.56;4954613;28;20053;-75
2023/01/13 02:54:54;;;;;;;0.32;0.32;;;;;;;2.62;76.02;94603.63;4974401;28;20071;-74
2023/01/13 02:57:20;;;;;;;0.47;0.30;;;;;;;1.23;80.12;94622.06;4953241;28;20072;-75
2023/01/13 02:59:45;;;;;;;0.57;0.22;;;;;;;1.50;80.29;94630.94;4949021;28;20049;-74
2023/01/13 03:02:12;;;;;;;0.22;0.22;;;;;;;1.11;80.27;94616.16;4950194;28;20587;-74
2023/01/13 03:04:57;;;;;;;0.50;0.35;;;;;;;0.80;81.33;94616.38;4950003;28;20308;-75
2023/01/13 03:07:47;;;;;;;0.52;0.20;;;;;;;0.63;80.83;94625.78;4964673;28;20092;-74
2023/01/13 03:10:32;;;;;;;0.70;0.30;;;;;;;0.71;80.18;94632.00;4980088;28;20155;-74
2023/01/13 03:13:28;;;;;;;1.40;0.40;;;;;;;0.76;80.29;94618.47;4980066;28;20529;-74
2023/01/13 03:16:19;;;;;;;0.80;0.25;;;;;;;0.34;81.05;94623.06;4979600;28;20110;-74
2023/01/13 03:19:06;;;;;;;0.45;0.38;;;;;;;0.39;79.44;94624.44;4940738;28;20554;-74
2023/01/13 03:21:38;;;;;;;1.20;0.50;;;;;;;0.45;79.30;94616.84;4980618;28;20060;-73
2023/01/13 03:24:24;;;;;;;1.13;0.60;;;;;;;0.34;78.35;94636.16;4971179;28;20045;-74
2023/01/13 03:26:54;;;;;;;0.13;0.13;;;;;;;0.74;77.84;94628.25;4980455;28;20127;-74
2023/01/13 03:29:20;;;;;;;;;;;;;;;0.63;77.92;94617.94;4964665;28;20090;-74
2023/01/13 03:31:55;;;;;;;0.55;0.30;;;;;;;0.71;76.81;94625.91;4968009;28;20364;-74
2023/01/13 03:34:21;;;;;;;0.45;0.38;;;;;;;0.36;77.74;94622.09;4978918;28;20088;-74
2023/01/13 03:36:47;;;;;;;0.30;0.30;;;;;;;0.63;77.03;94629.25;4949547;28;20515;-75
2023/01/13 03:39:14;;;;;;;0.68;0.30;;;;;;;0.99;75.15;94633.88;4979754;28;20368;-74
2023/01/13 03:41:43;;;;;;;3.88;0.50;;;;;;;0.68;75.33;94629.66;4947117;28;20943;-75
2023/01/13 03:44:23;;;;;;;0.30;0.30;;;;;;;0.77;75.46;94638.47;4971543;28;20536;-74
2023/01/13 03:47:02;;;;;;;0.70;0.22;;;;;;;0.42;76.02;94629.41;4963962;28;20103;-75
2023/01/13 03:49:35;;;;;;;1.17;0.40;;;;;;;0.70;73.86;94608.56;4965906;28;20071;-75
2023/01/13 03:52:03;;;;;;;0.77;0.30;;;;;;;0.17;75.29;94626.41;4960559;28;20569;-75
2023/01/13 03:54:30;;;;;;;1.45;0.50;;;;;;;0.22;73.91;94618.94;4964817;28;20722;-75
2023/01/13 03:57:00;;;;;;;1.25;0.35;;;;;;;-0.14;74.95;94606.38;4948795;28;20504;-75
2023/01/13 03:59:29;;;;;;;2.00;0.40;;;;;;;0.73;72.93;94611.69;4962157;28;20085;-75
2023/01/13 04:02:02;;;;;;;0.30;0.30;;;;;;;1.31;71.40;94595.94;4946977;28;20644;-75
2023/01/13 04:04:30;;;;;;;2.22;0.35;;;;;;;0.95;72.69;94591.38;4953456;28;20315;-75
2023/01/13 04:07:12;;;;;;;1.35;0.47;;;;;;;1.40;71.75;94590.78;4949097;28;20432;-76
2023/01/13 04:09:46;;;;;;;2.55;0.47;;;;;;;1.96;69.65;94567.97;4965508;28;20068;-76
2023/01/13 04:12:16;;;;;;;2.17;0.63;;;;;;;2.35;68.07;94564.16;4979752;28;20069;-76
2023/01/13 04:14:41;;;;;;;2.85;0.63;;;;;;;2.88;66.87;94558.94;4961534;28;20089;-76
2023/01/13 04:17:07;;;;;;;0.88;0.55;;;;;;;2.96;65.80;94559.97;4957187;28;20054;-76
2023/01/13 04:19:32;;;;;;;0.88;0.20;;;;;;;3.57;64.98;94546.75;4979433;28;20088;-76
2023/01/13 04:21:58;;;;;;;0.30;0.30;;;;;;;3.70;63.37;94571.81;4971479;28;20087;-76
2023/01/13 04:24:24;;;;;;;1.65;0.52;;;;;;;3.17;64.15;94588.50;4971059;28;20056;-76
2023/01/13 04:26:49;;;;;;;1.15;0.63;;;;;;;3.31;64.06;94595.00;4966907;28;20578;-76
2023/01/13 04:29:15;;;;;;;0.68;0.52;;;;;;;2.94;63.17;94625.03;4968449;28;20545;-76
2023/01/13 04:31:40;;;;;;;0.95;0.65;;;;;;;3.01;65.10;94629.53;4951501;28;20336;-76
2023/01/13 04:34:06;;;;;;;0.70;0.50;;;;;;;2.56;65.80;94649.75;4981972;28;20097;-76
2023/01/13 04:36:31;;;;;;;0.57;0.30;;;;;;;2.44;66.82;94624.66;4985783;28;20461;-76
2023/01/13 04:38:57;;;;;;;0.22;0.22;;;;;;;2.14;67.79;94628.34;4982821;28;20352;-76
2023/01/13 04:41:22;;;;;;;1.08;0.77;;;;;;;2.45;67.79;94618.44;4984190;28;20540;-76
2023/01/13 04:43:48;;;;;;;1.15;0.60;;;;;;;1.99;68.27;94611.47;4983062;28;20273;-76
2023/01/13 04:46:13;;;;;;;0.65;0.35;;;;;;;1.86;67.74;94630.19;4966715;28;20392;-75
2023/01/13 04:48:39;;;;;;;4.68;1.27;;;;;;;-0.07;69.99;94674.69;4982982;28;20090;-75
2023/01/13 04:51:04;;;;;;;1.92;0.75;;;;;;;-0.70;74.33;94660.88;4985658;28;20353;-75
2023/01/13 04:53:30;;;;;;;3.00;0.70;;;;;;;-0.48;72.28;94638.94;4980630;28;20500;-75
2023/01/13 04:55:55;;;;;;;0.95;0.55;;;;;;;-0.42;72.66;94603.59;4984333;28;20072;-75
2023/01/13 04:58:21;;;;;;;1.38;0.43;;;;;;;0.23;70.93;94556.91;4975833;28;20591;-75
2023/01/13 05:00:46;;;;;;;1.02;0.60;;;;;;;0.03;70.80;94543.84;4983838;28;20067;-75
2023/01/13 05:03:11;;;;;;;1.92;0.55;;;;;;;0.63;68.99;94558.50;4982819;28;20102;-75
2023/01/13 05:05:37;;;;;;;2.25;0.68;;;;;;;1.01;67.01;94581.28;4982558;28;20059;-76
2023/01/13 05:08:03;;;;;;;4.03;0.55;;;;;;;1.28;65.23;94592.75;4977685;28;20068;-76
2023/01/13 05:10:28;;;;;;;5.65;0.60;;;;;;;1.04;66.28;94604.59;4982368;28;20364;-75
2023/01/13 05:18:23;;;;;;;0.77;0.40;;;;;;;1.89;61.74;94585.28;4978934;28;20091;-75
2023/01/13 05:20:48;;;;;;;1.42;0.70;;;;;;;1.99;63.42;94590.44;4966352;28;20059;-75
2023/01/13 05:25:57;;;;;;;2.30;0.75;;;;;;;2.56;61.65;94580.59;4975533;28;20137;-76
2023/01/13 05:28:23;;;;;;;1.30;0.73;;;;;;;2.25;61.65;94594.97;4967012;28;20744;-75
2023/01/13 05:30:49;;;;;;;1.33;0.82;;;;;;;1.89;60.78;94606.28;4982326;28;20452;-75
2023/01/13 05:33:17;;;;;;;0.70;0.45;;;;;;;1.92;62.36;94605.97;4983574;28;20064;-76
2023/01/13 05:35:43;;;;;;;2.58;0.70;;;;;;;1.81;63.13;94598.31;4968673;28;20090;-76
2023/01/13 05:38:09;;;;;;;3.65;0.88;;;;;;;1.79;59.73;94608.13;4972506;28;20227;-76
2023/01/13 05:43:20;;;;;;;1.30;0.60;;;;;;;1.95;62.96;94557.59;4982090;28;20552;-75
2023/01/13 05:45:53;;;;;;;25.45;11.60;;;;;;;2.41;61.81;94564.56;4980939;28;20078;-76
2023/01/13 05:48:19;;;;;;;2.13;0.60;;;;;;;2.11;61.05;94568.25;4970435;28;20450;-76
2023/01/13 05:50:45;;;;;;;3.55;0.80;;;;;;;2.31;61.25;94568.06;4972228;28;20572;-76
2023/01/13 05:53:10;;;;;;;1.73;0.70;;;;;;;1.66;61.75;94579.63;4981261;28;20063;-76
2023/01/13 05:55:40;;;;;;;1.65;0.70;;;;;;;1.41;63.42;94587.19;4950171;28;20125;-76
2023/01/13 05:58:09;;;;;;;1.67;0.70;;;;;;;0.80;65.79;94579.69;4957827;28;20098;-75
2023/01/13 06:00:34;;;;;;;4.45;1.00;;;;;;;0.97;64.75;94571.09;4955324;28;20072;-76
2023/01/13 06:03:00;;;;;;;4.50;0.73;;;;;;;1.32;64.15;94584.47;4981066;28;20457;-76
2023/01/13 06:05:25;;;;;;;2.47;0.88;;;;;;;1.24;63.34;94585.22;4971222;28;20074;-75
2023/01/13 06:07:50;;;;;;;4.38;0.82;;;;;;;1.55;63.06;94584.09;4956391;28;20084;-76
2023/01/13 06:10:16;;;;;;;3.97;1.10;;;;;;;1.43;63.49;94586.06;4953055;28;20106;-75
2023/01/13 06:12:41;;;;;;;5.63;1.27;;;;;;;1.34;62.30;94589.56;4965748;28;20063;-76
2023/01/13 06:15:07;;;;;;;4.45;0.70;;;;;;;1.35;63.10;94592.06;4977693;28;20405;-75
2023/01/13 06:17:32;;;;;;;6.57;1.45;;;;;;;1.27;63.52;94602.44;4957991;28;20126;-75
2023/01/13 06:19:58;;;;;;;2.67;0.98;;;;;;;1.44;63.16;94607.88;4970407;28;20562;-75
2023/01/13 06:22:25;;;;;;;2.90;1.27;;;;;;;1.27;63.07;94612.09;4981161;28;20122;-76
2023/01/13 06:24:54;;;;;;;5.68;1.30;;;;;;;1.30;63.25;94612.63;4951435;28;20661;-76
2023/01/13 06:27:20;;;;;;;;;;;;;;;1.50;63.05;94612.56;4980182;28;20179;-76
2023/01/13 06:29:46;;;;;;;2.25;0.90;;;;;;;1.23;62.95;94611.56;4974344;28;20150;-75
2023/01/13 06:32:15;;;;;;;2.10;0.73;;;;;;;1.49;62.46;94618.75;4971184;28;20072;-76
2023/01/13 06:34:42;;;;;;;4.68;1.30;;;;;;;1.15;62.88;94616.69;4973328;28;20577;-76
2023/01/13 06:37:08;;;;;;;8.18;1.08;;;;;;;1.94;61.23;94605.84;4948638;28;20083;-76
2023/01/13 06:39:34;;;;;;;5.32;1.38;;;;;;;1.97;60.23;94613.38;4963626;28;20138;-76
2023/01/13 06:44:44;;;;;;;7.00;1.30;;;;;;;1.30;63.05;94611.81;4959138;28;20077;-75
2023/01/13 06:47:09;;;;;;;2.97;1.30;;;;;;;0.94;63.78;94615.09;4949644;28;20104;-76
2023/01/13 06:49:34;;;;;;;2.75;1.10;;;;;;;0.90;63.73;94611.13;4976934;28;20541;-75
2023/01/13 06:52:00;;;;;;;6.70;1.30;;;;;;;1.03;63.84;94606.41;4979851;28;20118;-76
2023/01/13 06:54:25;;;;;;;2.30;0.98;;;;;;;1.13;63.28;94602.91;4981503;28;20105;-76
2023/01/13 06:56:51;;;;;;;2.15;1.20;;;;;;;1.32;62.95;94599.38;4967818;28;20087;-76
2023/01/13 06:59:16;;;;;;;3.25;1.08;;;;;;;1.10;63.30;94610.09;4953729;28;20165;-76
2023/01/13 07:01:42;;;;;;;5.55;1.15;;;;;;;1.21;62.76;94613.50;4964047;28;20102;-76
2023/01/13 07:04:07;;;;;;;6.43;1.52;;;;;;;0.88;62.95;94615.69;4958243;28;20166;-76
2023/01/13 07:06:33;;;;;;;3.42;1.17;;;;;;;0.51;64.24;94620.69;4980864;28;20201;-75
2023/01/13 07:08:58;;;;;;;4.80;1.13;;;;;;;0.53;64.49;94613.53;4981322;28;20094;-76
2023/01/13 07:11:23;;;;;;;8.10;1.65;;;;;;;0.33;65.58;94624.03;4979597;28;20222;-76
2023/01/13 07:16:33;;;;;;;5.95;1.50;;;;;;;0.96;64.01;94616.63;4965757;28;20155;-76
2023/01/13 07:18:58;;;;;;;4.15;1.33;;;;;;;0.27;65.58;94629.81;4965320;28;20745;-76
2023/01/13 07:21:24;;;;;;;6.43;1.40;;;;;;;0.58;65.17;94621.81;4980113;28;20092;-76
2023/01/13 07:23:49;;;;;;;6.47;1.30;;;;;;;0.68;64.83;94626.22;4981212;28;20123;-75
2023/01/13 07:26:14;;;;;;;3.20;1.55;;;;;;;0.34;64.48;94633.53;4980118;28;20112;-76
2023/01/13 07:28:40;;;;;;;5.35;1.38;;;;;;;0.52;65.42;94638.09;4957208;28;20101;-75
2023/01/13 07:31:15;;;;;;;4.85;1.80;;;;;;;0.19;66.85;94643.63;4946774;28;20162;-75
2023/01/13 07:33:40;;;;;;;7.57;1.60;;;;;;;0.59;65.16;94646.22;4964423;28;20100;-75
2023/01/13 07:36:07;;;;;;;4.78;1.92;;;;;;;0.52;64.95;94645.97;4964763;28;20453;-75
2023/01/13 07:38:32;;;;;;;3.42;1.40;;;;;;;0.47;64.57;94653.38;4963416;28;20113;-75
2023/01/13 07:43:30;;;;;;;5.00;1.42;;;;;;;0.43;64.57;94649.38;4964201;28;20101;-75
2023/01/13 07:43:43;;;;;;;5.70;1.20;;;;;;;0.34;64.39;94664.13;4960361;28;20320;-75
2023/01/13 07:46:08;;;;;;;4.55;1.70;;;;;;;-0.18;66.01;94673.88;4979855;28;20116;-75
2023/01/13 07:48:34;;;;;;;8.20;1.70;;;;;;;0.06;65.56;94672.66;4981095;28;20703;-75
2023/01/13 07:51:04;;;;;;;6.15;1.67;;;;;;;0.15;65.41;94676.25;4972085;28;20124;-75
2023/01/13 07:53:30;;;;;;;7.90;1.73;;;;;;;0.41;64.63;94669.66;4980423;28;20101;-75
2023/01/13 07:55:56;;;;;;;4.18;1.38;;;;;;;0.37;64.39;94670.91;4964526;28;20070;-65
2023/01/13 07:58:22;;;;;;;5.35;1.70;;;;;;;0.57;64.54;94664.69;4980475;28;20101;-65
2023/01/13 08:00:47;;;;;;;4.13;1.40;;;;;;;0.65;64.10;94663.16;4979380;28;20089;-66
2023/01/13 08:03:13;;;;;;;2.40;1.17;;;;;;;1.04;62.75;94660.47;4962094;28;20104;-65
2023/01/13 08:05:38;;;;;;;4.90;1.60;;;;;;;1.59;61.48;94661.56;4977485;28;20110;-66
2023/01/13 08:08:04;;;;;;;4.45;1.30;;;;;;;1.74;59.41;94671.56;4975688;28;20079;-66
2023/01/13 08:10:29;;;;;;;4.43;1.40;;;;;;;1.93;59.76;94673.25;4977046;28;20668;-66
2023/01/13 08:15:38;;;;;;;3.70;1.52;;;;;;;0.80;63.93;94667.00;4982348;28;20431;-66
2023/01/13 08:18:04;;;;;;;7.32;1.38;;;;;;;0.96;63.24;94670.84;4978485;28;20331;-66
2023/01/13 08:20:29;;;;;;;6.80;1.70;;;;;;;0.64;64.30;94666.72;4977885;28;20076;-66
2023/01/13 08:22:58;;;;;;;7.47;1.90;;;;;;;0.34;65.52;94674.59;4981373;28;20104;-66
2023/01/13 08:25:25;;;;;;;3.75;1.45;;;;;;;0.38;65.67;94677.78;4982027;28;20106;-66
2023/01/13 08:27:50;;;;;;;2.30;0.93;;;;;;;0.44;64.94;94674.59;4977445;28;20116;-66
2023/01/13 08:30:16;;;;;;;7.25;1.75;;;;;;;0.14;65.71;94669.34;4978651;28;20097;-66
2023/01/13 08:32:45;;;;;;;4.35;1.40;;;;;;;0.27;64.52;94684.81;4979134;28;20076;-66
2023/01/13 08:35:10;;;;;;;5.88;1.75;;;;;;;0.05;65.73;94701.59;4976904;28;20139;-66
2023/01/13 08:37:36;;;;;;;6.45;1.52;;;;;;;-0.03;65.83;94694.41;4978578;28;20098;-66
2023/01/13 08:40:01;;;;;;;1.85;0.98;;;;;;;-0.38;65.81;94691.28;4979339;28;20199;-65
2023/01/13 08:42:27;;;;;;;4.60;1.30;;;;;;;-0.43;68.18;94688.25;4979661;28;20107;-66
2023/01/13 08:44:53;;;;;;;5.95;1.45;;;;;;;-0.75;69.91;94695.25;4982960;28;20075;-65
2023/01/13 08:47:18;;;;;;;4.97;2.42;;;;;;;-0.26;69.39;94692.03;4980672;28;20146;-65
2023/01/13 08:49:43;;;;;;;2.88;1.40;;;;;;;0.21;68.27;94698.47;4981766;28;20558;-65
2023/01/13 08:52:09;;;;;;;2.95;1.13;;;;;;;0.14;68.95;94705.19;4982682;28;20547;-65
2023/01/13 08:54:36;;;;;;;6.50;1.80;;;;;;;0.12;68.79;94712.34;4979338;28;20602;-64
2023/01/13 08:57:02;;;;;;;13.57;1.42;;;;;;;0.27;68.83;94725.88;4982239;28;20214;-65
2023/01/13 08:59:27;;;;;;;8.45;1.77;;;;;;;-0.09;70.25;94723.72;4980817;28;20100;-64
2023/01/13 09:01:53;;;;;;;4.03;1.55;;;;;;;-1.07;73.80;94722.28;4981284;28;20242;-65
2023/01/13 09:04:19;;;;;;;3.88;1.58;;;;;;;-1.18;75.84;94733.63;4982281;28;20097;-64
2023/01/13 09:06:45;;;;;;;6.50;1.65;;;;;;;-1.04;75.38;94734.25;4978904;28;20120;-65
2023/01/13 09:09:10;;;;;;;6.65;1.92;;;;;;;-1.10;75.73;94738.22;4981625;28;20123;-65
2023/01/13 09:14:23;;;;;;;5.70;1.77;;;;;;;-1.03;75.71;94728.91;4969213;28;20164;-65
2023/01/13 09:16:48;;;;;;;7.47;2.08;;;;;;;-0.55;73.88;94731.16;4982981;28;20349;-65
2023/01/13 09:19:14;;;;;;;7.53;2.17;;;;;;;-0.71;73.23;94733.25;4981273;28;20102;-66
2023/01/13 09:21:39;;;;;;;5.32;1.85;;;;;;;-0.95;73.88;94743.97;4982000;28;20087;-65
2023/01/13 09:24:05;;;;;;;5.95;1.67;;;;;;;-0.74;72.70;94741.34;4976704;28;20077;-65
2023/01/13 09:26:30;;;;;;;6.40;2.00;;;;;;;0.03;70.07;94746.22;4979655;28;20567;-65
2023/01/13 09:28:56;;;;;;;7.28;1.95;;;;;;;-0.16;69.72;94744.38;4977005;28;20544;-66
2023/01/13 09:31:21;;;;;;;8.02;2.30;;;;;;;-0.12;69.38;94752.78;4978026;28;20098;-65
2023/01/13 09:36:30;;;;;;;8.27;2.10;;;;;;;0.59;65.63;94746.56;4981990;28;20207;-65
2023/01/13 09:38:56;;;;;;;6.75;1.80;;;;;;;0.22;66.27;94752.47;4979929;28;20116;-66
2023/01/13 09:44:17;;;;;;;3.22;1.50;;;;;;;1.07;64.16;94744.09;4968829;28;20655;-65
2023/01/13 09:46:52;;;;;;;8.98;1.92;;;;;;;1.17;62.86;94743.25;4962815;28;20233;-66
2023/01/13 09:49:21;;;;;;;5.15;1.25;;;;;;;1.10;62.41;94754.28;4952519;28;20091;-65
2023/01/13 09:52:18;;;;;;;6.97;2.17;;;;;;;1.56;61.28;94744.97;4967107;28;20774;-65
2023/01/13 09:55:13;;;;;;;7.88;1.88;;;;;;;1.02;62.36;94758.59;4967391;28;20087;-65
2023/01/13 09:57:39;;;;;;;5.30;1.98;;;;;;;0.65;61.84;94762.72;4974741;28;20543;-66
2023/01/13 10:00:24;;;;;;;7.63;2.22;;;;;;;0.36;61.80;94781.84;4980165;28;20077;-65
2023/01/13 10:03:00;;;;;;;10.35;2.58;;;;;;;0.12;62.77;94785.63;4962248;28;20097;-65
2023/01/13 10:05:55;;;;;;;7.45;2.05;;;;;;;0.42;61.68;94766.44;4981280;28;20231;-66
2023/01/13 10:08:28;;;;;;;8.88;1.92;;;;;;;0.39;61.35;94771.09;4955335;28;20094;-67
2023/01/13 10:10:58;;;;;;;6.80;2.00;;;;;;;0.10;63.20;94766.63;4975901;28;20570;-66
2023/01/13 10:13:26;;;;;;;13.48;2.67;;;;;;;-0.13;61.12;94772.88;4951754;28;20456;-65
2023/01/13 10:16:14;;;;;;;3.72;1.58;;;;;;;0.31;63.72;94759.50;4982448;28;20089;-65
2023/01/13 10:18:53;;;;;;;7.57;2.13;;;;;;;0.26;62.10;94779.19;4974181;28;20524;-65
2023/01/13 10:21:48;;;;;;;6.13;1.80;;;;;;;0.84;60.96;94770.59;4980162;28;20647;-65
2023/01/13 10:24:32;;;;;;;9.45;2.30;;;;;;;0.18;61.31;94764.97;4969655;28;20790;-65
2023/01/13 10:27:12;;;;;;;10.80;2.53;;;;;;;0.06;60.89;94768.69;4978277;28;20157;-65
2023/01/13 10:29:37;;;;;;;8.13;1.92;;;;;;;-0.04;62.29;94763.41;4968277;28;20123;-65
2023/01/13 10:32:03;;;;;;;11.15;1.75;;;;;;;0.51;61.58;94745.63;4975028;28;20527;-65
2023/01/13 10:34:29;;;;;;;10.45;2.33;;;;;;;0.48;59.33;94746.69;4977167;28;20125;-65
2023/01/13 10:36:59;;;;;;;9.73;2.20;;;;;;;0.07;62.07;94750.22;4976821;28;20540;-66
2023/01/13 10:39:24;;;;;;;6.60;1.85;;;;;;;0.51;61.90;94743.81;4977059;28;20764;-66
2023/01/13 10:42:02;;;;;;;10.98;2.80;;;;;;;0.68;58.83;94744.13;4976727;28;20111;-65
2023/01/13 10:44:28;;;;;;;8.77;2.08;;;;;;;0.53;61.44;94762.84;4981470;28;20493;-65
2023/01/13 10:46:55;;;;;;;6.30;1.88;;;;;;;1.34;58.53;94763.50;4978689;28;20104;-66
2023/01/13 10:49:31;;;;;;;6.35;2.10;;;;;;;0.58;59.20;94751.97;4976727;28;20095;-65
2023/01/13 10:51:57;;;;;;;6.60;2.05;;;;;;;-0.12;60.95;94786.81;4957795;28;20489;-65
2023/01/13 10:54:23;;;;;;;13.25;2.50;;;;;;;-0.00;60.63;94766.59;4976834;28;20106;-65
2023/01/13 10:56:49;;;;;;;8.23;1.98;;;;;;;0.03;59.42;94753.22;4974847;28;20075;-66
2023/01/13 10:59:27;;;;;;;8.25;2.35;;;;;;;0.16;60.15;94758.22;4969759;28;20106;-66
2023/01/13 11:02:01;;;;;;;13.20;2.23;;;;;;;0.60;58.35;94757.88;4965867;28;20104;-66
2023/01/13 11:04:31;;;;;;;12.05;2.72;;;;;;;0.88;58.64;94750.16;4956486;28;20555;-66
2023/01/13 11:06:57;;;;;;;9.15;2.35;;;;;;;0.93;57.58;94768.94;4970113;28;20533;-66
2023/01/13 11:09:24;;;;;;;6.22;2.03;;;;;;;0.85;58.30;94777.47;4969240;28;21649;-67
2023/01/13 11:11:54;;;;;;;9.38;2.30;;;;;;;0.50;59.30;94770.13;4946042;28;20075;-65
2023/01/13 11:14:40;;;;;;;10.57;2.30;;;;;;;0.77;57.93;94764.25;4966194;28;20096;-66
2023/01/13 11:17:27;;;;;;;10.95;2.50;;;;;;;0.79;57.12;94796.38;4957298;28;20080;-65
2023/01/13 11:19:59;;;;;;;9.88;2.38;;;;;;;1.31;56.56;94770.81;4962839;28;20806;-66
2023/01/13 11:22:27;;;;;;;7.50;1.95;;;;;;;1.37;57.08;94755.34;4958115;28;20787;-65
2023/01/13 11:25:01;;;;;;;10.48;2.65;;;;;;;1.01;56.55;94773.47;4943554;28;20065;-66
2023/01/13 11:27:35;;;;;;;6.88;2.15;;;;;;;1.28;56.25;94777.19;4960181;28;20390;-65
2023/01/13 11:30:08;;;;;;;8.95;2.63;;;;;;;0.56;57.17;94778.31;4975246;28;20105;-65
2023/01/13 11:32:59;;;;;;;9.30;2.22;;;;;;;0.76;57.54;94785.34;4979737;28;20076;-65
2023/01/13 11:35:24;;;;;;;10.93;2.97;;;;;;;0.57;57.43;94769.47;4967370;28;20105;-65
2023/01/13 11:37:55;;;;;;;10.45;3.08;;;;;;;0.88;56.40;94775.56;4975467;28;20106;-65
2023/01/13 11:40:31;;;;;;;6.43;2.25;;;;;;;0.68;57.88;94799.16;4961428;28;20884;-66
2023/01/13 11:43:10;;;;;;;10.20;2.58;;;;;;;0.55;55.52;94786.31;4965349;28;20526;-66
2023/01/13 11:45:37;;;;;;;;;;;;;;;0.54;57.23;94793.31;4969358;28;20132;-66
2023/01/13 11:48:02;;;;;;;7.07;2.25;;;;;;;0.95;56.41;94802.84;4960903;28;20005;-66
2023/01/13 11:50:40;;;;;;;7.32;2.15;;;;;;;0.57;56.22;94779.97;4958317;28;20108;-65
2023/01/13 11:53:23;;;;;;;10.65;2.22;;;;;;;0.66;57.10;94790.56;4961371;28;20089;-66
2023/01/13 11:56:01;;;;;;;12.77;2.42;;;;;;;0.37;57.26;94788.75;4976978;28;20218;-65
2023/01/13 11:59:07;;;;;;;7.60;2.08;;;;;;;0.77;56.07;94784.38;4978113;28;20102;-66
2023/01/13 12:01:35;;;;;;;8.02;2.10;;;;;;;0.76;56.70;94815.00;4974887;28;20614;-66
2023/01/13 12:04:41;;;;;;;11.05;2.75;;;;;;;0.40;57.38;94810.25;4974401;28;20172;-66
2023/01/13 12:07:33;;;;;;;10.75;2.30;;;;;;;0.46;58.56;94798.41;4905488;29;20109;-66
2023/01/13 12:10:28;;;;;;;15.25;2.70;;;;;;;0.40;58.04;94794.53;4879155;29;20176;-66
2023/01/13 12:13:23;;;;;;;9.75;2.15;;;;;;;0.78;58.05;94786.84;4962693;28;20077;-66
2023/01/13 12:16:07;;;;;;;8.93;2.30;;;;;;;1.32;55.39;94783.81;4962413;28;20101;-65
2023/01/13 12:19:09;;;;;;;11.93;3.08;;;;;;;0.73;57.59;94808.22;4977183;28;20126;-65
2023/01/13 12:21:59;;;;;;;9.07;2.60;;;;;;;1.02;56.72;94801.34;4974499;28;20160;-66
2023/01/13 12:24:33;;;;;;;12.85;2.70;;;;;;;0.65;56.81;94807.28;4979468;28;20068;-66
2023/01/13 12:27:05;;;;;;;9.43;2.38;;;;;;;1.11;56.70;94797.91;4962736;28;20105;-66
2023/01/13 12:29:34;;;;;;;9.13;2.53;;;;;;;1.22;56.10;94782.97;4952754;28;20095;-66
2023/01/13 12:32:20;;;;;;;11.43;2.47;;;;;;;0.96;55.81;94800.09;4979195;28;20520;-66
2023/01/13 12:35:20;;;;;;;10.18;2.75;;;;;;;0.51;56.35;94825.00;4960516;28;20173;-65